sensor_id;sensor_type;location;lat;lon;timestamp;pressure;altitude;pressure_sealevel;temperature;humidity
26192;BME280;13935;55.672;37.764;2023-02-18T00:00:49;100181.13;;;-7.67;100.00
26192;BME280;13935;55.672;37.764;2023-02-18T00:01:51;100176.81;;;-7.63;100.00
26192;BME280;13935;55.672;37.764;2023-02-18T00:02:53;100175.50;;;-7.61;100.00
26192;BME280;13935;55.672;37.764;2023-02-18T00:03:57;100182.19;;;-7.63;100.00
26192;BME280;13935;55.672;37.764;2023-02-18T00:05:00;100175.22;;;-7.64;100.00
26192;BME280;13935;55.672;37.764;2023-02-18T00:07:36;100170.91;;;-7.65;100.00
26192;BME280;13935;55.672;37.764;2023-02-18T00:08:38;100171.19;;;-7.62;100.00
26192;BME280;13935;55.672;37.764;2023-02-18T00:09:40;100161.78;;;-7.69;100.00
26192;BME280;13935;55.672;37.764;2023-02-18T00:10:45;100175.75;;;-7.67;100.00
26192;BME280;13935;55.672;37.764;2023-02-18T00:11:47;100169.81;;;-7.74;100.00
26192;BME280;13935;55.672;37.764;2023-02-18T00:12:49;100167.09;;;-7.79;100.00
26192;BME280;13935;55.672;37.764;2023-02-18T00:13:53;100166.31;;;-7.75;100.00
26192;BME280;13935;55.672;37.764;2023-02-18T00:14:56;100168.44;;;-7.81;100.00
26192;BME280;13935;55.672;37.764;2023-02-18T00:16:07;100169.81;;;-7.74;100.00
26192;BME280;13935;55.672;37.764;2023-02-18T00:17:10;100170.84;;;-7.85;100.00
26192;BME280;13935;55.672;37.764;2023-02-18T00:18:11;100169.75;;;-7.84;100.00
26192;BME280;13935;55.672;37.764;2023-02-18T00:19:18;100169.53;;;-7.77;100.00
26192;BME280;13935;55.672;37.764;2023-02-18T00:20:20;100168.69;;;-7.78;100.00
26192;BME280;13935;55.672;37.764;2023-02-18T00:21:23;100162.25;;;-7.82;100.00
26192;BME280;13935;55.672;37.764;2023-02-18T00:22:25;100167.06;;;-7.84;100.00
26192;BME280;13935;55.672;37.764;2023-02-18T00:23:27;100164.91;;;-7.87;100.00
26192;BME280;13935;55.672;37.764;2023-02-18T00:24:29;100163.81;;;-7.91;100.00
26192;BME280;13935;55.672;37.764;2023-02-18T00:25:31;100161.97;;;-7.85;100.00
26192;BME280;13935;55.672;37.764;2023-02-18T00:26:34;100169.19;;;-7.91;100.00
26192;BME280;13935;55.672;37.764;2023-02-18T00:27:36;100156.31;;;-7.89;100.00
26192;BME280;13935;55.672;37.764;2023-02-18T00:28:39;100160.88;;;-7.89;100.00
26192;BME280;13935;55.672;37.764;2023-02-18T00:29:41;100155.53;;;-7.79;100.00
26192;BME280;13935;55.672;37.764;2023-02-18T00:30:43;100153.09;;;-7.91;100.00
26192;BME280;13935;55.672;37.764;2023-02-18T00:31:45;100157.41;;;-7.85;100.00
26192;BME280;13935;55.672;37.764;2023-02-18T00:32:47;100157.13;;;-7.88;100.00
26192;BME280;13935;55.672;37.764;2023-02-18T00:33:49;100161.44;;;-7.82;100.00
26192;BME280;13935;55.672;37.764;2023-02-18T00:34:52;100155.25;;;-7.83;100.00
26192;BME280;13935;55.672;37.764;2023-02-18T00:36:01;100154.97;;;-7.86;100.00
26192;BME280;13935;55.672;37.764;2023-02-18T00:37:03;100152.81;;;-7.94;100.00
26192;BME280;13935;55.672;37.764;2023-02-18T00:38:05;100158.97;;;-7.94;100.00
26192;BME280;13935;55.672;37.764;2023-02-18T00:39:09;100153.59;;;-7.94;100.00
26192;BME280;13935;55.672;37.764;2023-02-18T00:40:12;100149.31;;;-7.90;100.00
26192;BME280;13935;55.672;37.764;2023-02-18T00:41:15;100147.44;;;-7.94;100.00
26192;BME280;13935;55.672;37.764;2023-02-18T00:42:19;100144.75;;;-7.94;100.00
26192;BME280;13935;55.672;37.764;2023-02-18T00:43:21;100144.78;;;-7.89;100.00
26192;BME280;13935;55.672;37.764;2023-02-18T00:44:23;100139.63;;;-7.96;100.00
26192;BME280;13935;55.672;37.764;2023-02-18T00:45:25;100141.81;;;-7.88;100.00
26192;BME280;13935;55.672;37.764;2023-02-18T00:46:28;100142.84;;;-7.99;100.00
26192;BME280;13935;55.672;37.764;2023-02-18T00:47:31;100138.34;;;-7.88;100.00
26192;BME280;13935;55.672;37.764;2023-02-18T00:48:34;100134.25;;;-7.96;100.00
26192;BME280;13935;55.672;37.764;2023-02-18T00:49:36;100139.59;;;-8.01;100.00
26192;BME280;13935;55.672;37.764;2023-02-18T00:50:39;100131.84;;;-7.97;100.00
26192;BME280;13935;55.672;37.764;2023-02-18T00:51:41;100129.47;;;-7.89;100.00
26192;BME280;13935;55.672;37.764;2023-02-18T00:52:43;100138.06;;;-7.87;100.00
26192;BME280;13935;55.672;37.764;2023-02-18T00:53:45;100133.50;;;-7.91;100.00
26192;BME280;13935;55.672;37.764;2023-02-18T00:54:47;100129.47;;;-7.89;100.00
26192;BME280;13935;55.672;37.764;2023-02-18T00:55:49;100120.91;;;-7.91;100.00
26192;BME280;13935;55.672;37.764;2023-02-18T00:56:51;100132.16;;;-7.89;100.00
26192;BME280;13935;55.672;37.764;2023-02-18T00:57:53;100123.31;;;-7.94;100.00
26192;BME280;13935;55.672;37.764;2023-02-18T00:58:55;100126.19;;;-8.01;100.00
26192;BME280;13935;55.672;37.764;2023-02-18T00:59:57;100124.34;;;-7.95;100.00
26192;BME280;13935;55.672;37.764;2023-02-18T01:00:59;100111.75;;;-7.90;100.00
26192;BME280;13935;55.672;37.764;2023-02-18T01:02:01;100122.19;;;-7.93;100.00
26192;BME280;13935;55.672;37.764;2023-02-18T01:03:04;100114.91;;;-8.03;100.00
26192;BME280;13935;55.672;37.764;2023-02-18T01:04:08;100122.44;;;-8.00;100.00
26192;BME280;13935;55.672;37.764;2023-02-18T01:05:10;100115.53;;;-7.91;100.00
26192;BME280;13935;55.672;37.764;2023-02-18T01:06:15;100112.81;;;-7.96;100.00
26192;BME280;13935;55.672;37.764;2023-02-18T01:07:18;100121.94;;;-7.97;100.00
26192;BME280;13935;55.672;37.764;2023-02-18T01:08:20;100108.00;;;-7.94;100.00
26192;BME280;13935;55.672;37.764;2023-02-18T01:09:23;100110.94;;;-8.00;100.00
26192;BME280;13935;55.672;37.764;2023-02-18T01:10:26;100103.41;;;-7.98;100.00
26192;BME280;13935;55.672;37.764;2023-02-18T01:11:29;100105.56;;;-8.00;100.00
26192;BME280;13935;55.672;37.764;2023-02-18T01:12:30;100102.91;;;-7.95;100.00
26192;BME280;13935;55.672;37.764;2023-02-18T01:13:33;100097.75;;;-8.02;100.00
26192;BME280;13935;55.672;37.764;2023-02-18T01:14:35;100098.28;;;-8.05;100.00
26192;BME280;13935;55.672;37.764;2023-02-18T01:15:37;100102.59;;;-8.04;100.00
26192;BME280;13935;55.672;37.764;2023-02-18T01:16:40;100094.00;;;-8.01;100.00
26192;BME280;13935;55.672;37.764;2023-02-18T01:17:42;100087.03;;;-8.02;100.00
26192;BME280;13935;55.672;37.764;2023-02-18T01:18:44;100090.22;;;-8.10;100.00
26192;BME280;13935;55.672;37.764;2023-02-18T01:19:46;100091.56;;;-8.12;100.00
26192;BME280;13935;55.672;37.764;2023-02-18T01:20:48;100084.34;;;-8.02;100.00
26192;BME280;13935;55.672;37.764;2023-02-18T01:21:50;100086.22;;;-8.02;100.00
26192;BME280;13935;55.672;37.764;2023-02-18T01:22:52;100081.91;;;-8.08;100.00
26192;BME280;13935;55.672;37.764;2023-02-18T01:23:55;100068.75;;;-8.15;100.00
26192;BME280;13935;55.672;37.764;2023-02-18T01:25:03;100067.16;;;-8.11;100.00
26192;BME280;13935;55.672;37.764;2023-02-18T01:26:06;100065.56;;;-8.02;100.00
26192;BME280;13935;55.672;37.764;2023-02-18T01:27:11;100068.25;;;-8.07;100.00
26192;BME280;13935;55.672;37.764;2023-02-18T01:28:16;100062.31;;;-8.09;100.00
26192;BME280;13935;55.672;37.764;2023-02-18T01:29:19;100055.38;;;-8.10;100.00
26192;BME280;13935;55.672;37.764;2023-02-18T01:30:21;100054.34;;;-7.99;100.00
26192;BME280;13935;55.672;37.764;2023-02-18T01:31:23;100058.28;;;-8.11;100.00
26192;BME280;13935;55.672;37.764;2023-02-18T01:32:25;100059.16;;;-8.01;100.00
26192;BME280;13935;55.672;37.764;2023-02-18T01:33:27;100055.06;;;-8.18;100.00
26192;BME280;13935;55.672;37.764;2023-02-18T01:34:29;100048.66;;;-8.07;100.00
26192;BME280;13935;55.672;37.764;2023-02-18T01:35:33;100051.06;;;-8.11;100.00
26192;BME280;13935;55.672;37.764;2023-02-18T01:36:35;100048.66;;;-8.12;100.00
26192;BME280;13935;55.672;37.764;2023-02-18T01:37:37;100042.47;;;-8.13;100.00
26192;BME280;13935;55.672;37.764;2023-02-18T01:38:42;100044.09;;;-8.17;100.00
26192;BME280;13935;55.672;37.764;2023-02-18T01:39:44;100043.25;;;-8.27;100.00
26192;BME280;13935;55.672;37.764;2023-02-18T01:40:48;100039.25;;;-8.20;100.00
26192;BME280;13935;55.672;37.764;2023-02-18T01:41:52;100041.13;;;-8.25;100.00
26192;BME280;13935;55.672;37.764;2023-02-18T01:42:54;100032.25;;;-8.26;100.00
26192;BME280;13935;55.672;37.764;2023-02-18T01:44:17;100031.22;;;-8.20;100.00
26192;BME280;13935;55.672;37.764;2023-02-18T01:46:40;100029.56;;;-8.31;100.00
26192;BME280;13935;55.672;37.764;2023-02-18T01:47:42;100030.03;;;-8.43;100.00
26192;BME280;13935;55.672;37.764;2023-02-18T01:48:56;100035.38;;;-8.43;100.00
26192;BME280;13935;55.672;37.764;2023-02-18T01:49:59;100022.00;;;-8.39;100.00
26192;BME280;13935;55.672;37.764;2023-02-18T01:52:09;100016.69;;;-8.29;100.00
26192;BME280;13935;55.672;37.764;2023-02-18T01:53:17;100022.06;;;-8.29;100.00
26192;BME280;13935;55.672;37.764;2023-02-18T01:55:30;100022.34;;;-8.25;100.00
26192;BME280;13935;55.672;37.764;2023-02-18T01:56:37;100015.31;;;-8.36;100.00
26192;BME280;13935;55.672;37.764;2023-02-18T01:57:41;100018.28;;;-8.28;100.00
26192;BME280;13935;55.672;37.764;2023-02-18T01:58:44;100015.91;;;-8.24;100.00
26192;BME280;13935;55.672;37.764;2023-02-18T01:59:58;100020.47;;;-8.20;100.00
26192;BME280;13935;55.672;37.764;2023-02-18T02:01:05;100014.59;;;-8.17;100.00
26192;BME280;13935;55.672;37.764;2023-02-18T02:02:12;100009.78;;;-8.15;100.00
26192;BME280;13935;55.672;37.764;2023-02-18T02:03:14;100016.72;;;-8.19;100.00
26192;BME280;13935;55.672;37.764;2023-02-18T02:04:18;100018.28;;;-8.33;100.00
26192;BME280;13935;55.672;37.764;2023-02-18T02:05:21;100003.25;;;-8.34;100.00
26192;BME280;13935;55.672;37.764;2023-02-18T02:06:24;100009.94;;;-8.36;100.00
26192;BME280;13935;55.672;37.764;2023-02-18T02:07:27;100009.16;;;-8.37;100.00
26192;BME280;13935;55.672;37.764;2023-02-18T02:08:30;100005.41;;;-8.41;100.00
26192;BME280;13935;55.672;37.764;2023-02-18T02:09:33;100000.06;;;-8.36;100.00
26192;BME280;13935;55.672;37.764;2023-02-18T02:13:23;100004.38;;;-8.30;100.00
26192;BME280;13935;55.672;37.764;2023-02-18T02:17:06;99989.31;;;-8.36;100.00
26192;BME280;13935;55.672;37.764;2023-02-18T02:21:06;99997.84;;;-8.43;100.00
26192;BME280;13935;55.672;37.764;2023-02-18T02:25:02;99981.38;;;-8.16;100.00
26192;BME280;13935;55.672;37.764;2023-02-18T02:30:16;99982.41;;;-8.07;100.00
26192;BME280;13935;55.672;37.764;2023-02-18T02:32:35;99985.13;;;-8.02;100.00
26192;BME280;13935;55.672;37.764;2023-02-18T02:35:28;99980.31;;;-7.95;100.00
26192;BME280;13935;55.672;37.764;2023-02-18T02:36:46;99984.06;;;-8.01;100.00
26192;BME280;13935;55.672;37.764;2023-02-18T02:42:25;99976.56;;;-7.89;100.00
26192;BME280;13935;55.672;37.764;2023-02-18T02:46:17;99975.00;;;-7.75;100.00
26192;BME280;13935;55.672;37.764;2023-02-18T02:47:54;99972.31;;;-7.80;100.00
26192;BME280;13935;55.672;37.764;2023-02-18T02:51:02;99968.00;;;-7.86;100.00
26192;BME280;13935;55.672;37.764;2023-02-18T02:53:21;99964.78;;;-7.83;100.00
26192;BME280;13935;55.672;37.764;2023-02-18T02:54:26;99961.56;;;-7.80;100.00
26192;BME280;13935;55.672;37.764;2023-02-18T02:55:30;99953.25;;;-7.78;100.00
26192;BME280;13935;55.672;37.764;2023-02-18T02:56:32;99957.81;;;-7.59;100.00
26192;BME280;13935;55.672;37.764;2023-02-18T02:58:56;99954.06;;;-7.58;100.00
26192;BME280;13935;55.672;37.764;2023-02-18T03:00:01;99947.66;;;-7.42;100.00
26192;BME280;13935;55.672;37.764;2023-02-18T03:11:16;99936.34;;;-7.69;100.00
26192;BME280;13935;55.672;37.764;2023-02-18T03:12:32;99932.63;;;-7.48;100.00
26192;BME280;13935;55.672;37.764;2023-02-18T03:14:26;99937.44;;;-7.65;100.00
26192;BME280;13935;55.672;37.764;2023-02-18T03:15:33;99946.28;;;-7.50;100.00
26192;BME280;13935;55.672;37.764;2023-02-18T03:18:06;99924.03;;;-7.60;100.00
26192;BME280;13935;55.672;37.764;2023-02-18T03:20:15;99912.50;;;-7.51;100.00
26192;BME280;13935;55.672;37.764;2023-02-18T03:22:57;99915.97;;;-7.50;100.00
26192;BME280;13935;55.672;37.764;2023-02-18T03:24:13;99913.28;;;-7.50;100.00
26192;BME280;13935;55.672;37.764;2023-02-18T03:25:18;99927.78;;;-7.56;100.00
26192;BME280;13935;55.672;37.764;2023-02-18T03:26:20;99917.56;;;-7.59;100.00
26192;BME280;13935;55.672;37.764;2023-02-18T03:27:31;99920.25;;;-7.69;100.00
26192;BME280;13935;55.672;37.764;2023-02-18T03:28:36;99920.25;;;-7.64;100.00
26192;BME280;13935;55.672;37.764;2023-02-18T03:29:40;99925.91;;;-7.66;100.00
26192;BME280;13935;55.672;37.764;2023-02-18T03:30:51;99914.06;;;-7.75;100.00
26192;BME280;13935;55.672;37.764;2023-02-18T03:31:58;99904.97;;;-7.83;100.00
26192;BME280;13935;55.672;37.764;2023-02-18T03:33:04;99904.16;;;-7.79;100.00
26192;BME280;13935;55.672;37.764;2023-02-18T03:34:22;99899.88;;;-7.80;100.00
26192;BME280;13935;55.672;37.764;2023-02-18T03:35:26;99895.84;;;-7.87;100.00
26192;BME280;13935;55.672;37.764;2023-02-18T03:36:31;99892.88;;;-7.86;100.00
26192;BME280;13935;55.672;37.764;2023-02-18T03:37:41;99901.44;;;-7.84;100.00
26192;BME280;13935;55.672;37.764;2023-02-18T03:38:58;99893.94;;;-7.87;100.00
26192;BME280;13935;55.672;37.764;2023-02-18T03:40:01;99900.13;;;-7.86;100.00
26192;BME280;13935;55.672;37.764;2023-02-18T03:41:04;99896.38;;;-7.85;100.00
26192;BME280;13935;55.672;37.764;2023-02-18T03:42:09;99888.31;;;-7.66;100.00
26192;BME280;13935;55.672;37.764;2023-02-18T03:43:11;99891.28;;;-7.57;100.00
26192;BME280;13935;55.672;37.764;2023-02-18T03:44:13;99886.47;;;-7.60;100.00
26192;BME280;13935;55.672;37.764;2023-02-18T03:45:15;99876.22;;;-7.53;100.00
26192;BME280;13935;55.672;37.764;2023-02-18T03:46:18;99876.81;;;-7.66;100.00
26192;BME280;13935;55.672;37.764;2023-02-18T03:47:20;99880.00;;;-7.69;100.00
26192;BME280;13935;55.672;37.764;2023-02-18T03:48:22;99885.34;;;-7.59;100.00
26192;BME280;13935;55.672;37.764;2023-02-18T03:49:26;99889.66;;;-7.58;100.00
26192;BME280;13935;55.672;37.764;2023-02-18T03:50:28;99890.47;;;-7.48;100.00
26192;BME280;13935;55.672;37.764;2023-02-18T03:51:31;99880.81;;;-7.54;100.00
26192;BME280;13935;55.672;37.764;2023-02-18T03:52:33;99878.38;;;-7.45;100.00
26192;BME280;13935;55.672;37.764;2023-02-18T03:53:37;99877.59;;;-7.66;100.00
26192;BME280;13935;55.672;37.764;2023-02-18T03:54:39;99868.22;;;-7.68;100.00
26192;BME280;13935;55.672;37.764;2023-02-18T03:55:42;99875.19;;;-7.67;100.00
26192;BME280;13935;55.672;37.764;2023-02-18T03:56:44;99868.72;;;-7.56;100.00
26192;BME280;13935;55.672;37.764;2023-02-18T03:57:46;99871.44;;;-7.61;100.00
26192;BME280;13935;55.672;37.764;2023-02-18T03:58:48;99858.00;;;-7.61;100.00
26192;BME280;13935;55.672;37.764;2023-02-18T03:59:50;99860.13;;;-7.43;100.00
26192;BME280;13935;55.672;37.764;2023-02-18T04:00:52;99860.13;;;-7.53;100.00
26192;BME280;13935;55.672;37.764;2023-02-18T04:01:54;99860.94;;;-7.53;100.00
26192;BME280;13935;55.672;37.764;2023-02-18T04:02:56;99855.81;;;-7.39;100.00
26192;BME280;13935;55.672;37.764;2023-02-18T04:03:58;99852.34;;;-7.45;100.00
26192;BME280;13935;55.672;37.764;2023-02-18T04:05:00;99854.25;;;-7.60;100.00
26192;BME280;13935;55.672;37.764;2023-02-18T04:06:04;99852.63;;;-7.56;100.00
26192;BME280;13935;55.672;37.764;2023-02-18T04:07:06;99853.16;;;-7.49;100.00
26192;BME280;13935;55.672;37.764;2023-02-18T04:08:08;99855.03;;;-7.40;100.00
26192;BME280;13935;55.672;37.764;2023-02-18T04:09:11;99850.75;;;-7.46;100.00
26192;BME280;13935;55.672;37.764;2023-02-18T04:10:13;99848.28;;;-7.27;100.00
26192;BME280;13935;55.672;37.764;2023-02-18T04:11:15;99846.66;;;-7.28;100.00
26192;BME280;13935;55.672;37.764;2023-02-18T04:12:17;99843.47;;;-7.35;100.00
26192;BME280;13935;55.672;37.764;2023-02-18T04:13:19;99846.66;;;-7.18;100.00
26192;BME280;13935;55.672;37.764;2023-02-18T04:14:21;99840.78;;;-7.30;100.00
26192;BME280;13935;55.672;37.764;2023-02-18T04:15:23;99848.28;;;-7.27;100.00
26192;BME280;13935;55.672;37.764;2023-02-18T04:16:26;99841.28;;;-7.28;100.00
26192;BME280;13935;55.672;37.764;2023-02-18T04:17:28;99844.56;;;-7.41;100.00
26192;BME280;13935;55.672;37.764;2023-02-18T04:18:30;99829.50;;;-7.32;100.00
26192;BME280;13935;55.672;37.764;2023-02-18T04:19:32;99835.34;;;-7.15;100.00
26192;BME280;13935;55.672;37.764;2023-02-18T04:20:34;99837.28;;;-7.21;100.00
26192;BME280;13935;55.672;37.764;2023-02-18T04:21:36;99831.91;;;-7.21;100.00
26192;BME280;13935;55.672;37.764;2023-02-18T04:22:38;99830.50;;;-7.08;100.00
26192;BME280;13935;55.672;37.764;2023-02-18T04:23:40;99842.38;;;-7.24;100.00
26192;BME280;13935;55.672;37.764;2023-02-18T04:24:42;99826.78;;;-7.27;100.00
26192;BME280;13935;55.672;37.764;2023-02-18T04:25:44;99830.03;;;-7.25;100.00
26192;BME280;13935;55.672;37.764;2023-02-18T04:26:46;99820.06;;;-7.15;100.00
26192;BME280;13935;55.672;37.764;2023-02-18T04:27:48;99827.84;;;-7.13;100.00
26192;BME280;13935;55.672;37.764;2023-02-18T04:28:50;99820.59;;;-7.18;100.00
26192;BME280;13935;55.672;37.764;2023-02-18T04:29:52;99825.13;;;-7.08;100.00
26192;BME280;13935;55.672;37.764;2023-02-18T04:30:54;99817.88;;;-7.13;100.00
26192;BME280;13935;55.672;37.764;2023-02-18T04:31:57;99827.84;;;-7.13;100.00
26192;BME280;13935;55.672;37.764;2023-02-18T04:32:59;99813.59;;;-7.19;100.00
26192;BME280;13935;55.672;37.764;2023-02-18T04:34:01;99807.91;;;-7.03;100.00
26192;BME280;13935;55.672;37.764;2023-02-18T04:35:03;99818.66;;;-7.03;100.00
26192;BME280;13935;55.672;37.764;2023-02-18T04:36:06;99814.38;;;-7.08;100.00
26192;BME280;13935;55.672;37.764;2023-02-18T04:37:09;99808.44;;;-6.96;100.00
26192;BME280;13935;55.672;37.764;2023-02-18T04:38:13;99811.94;;;-7.05;100.00
26192;BME280;13935;55.672;37.764;2023-02-18T04:39:15;99808.97;;;-6.94;100.00
26192;BME280;13935;55.672;37.764;2023-02-18T04:40:17;99807.31;;;-6.90;100.00
26192;BME280;13935;55.672;37.764;2023-02-18T04:41:19;99806.28;;;-6.94;100.00
26192;BME280;13935;55.672;37.764;2023-02-18T04:42:22;99800.06;;;-6.84;100.00
26192;BME280;13935;55.672;37.764;2023-02-18T04:43:24;99791.53;;;-6.96;100.00
26192;BME280;13935;55.672;37.764;2023-02-18T04:44:25;99794.00;;;-7.14;100.00
26192;BME280;13935;55.672;37.764;2023-02-18T04:45:28;99798.25;;;-7.04;100.00
26192;BME280;13935;55.672;37.764;2023-02-18T04:46:30;99789.63;;;-6.96;100.00
26192;BME280;13935;55.672;37.764;2023-02-18T04:47:32;99789.13;;;-7.07;100.00
26192;BME280;13935;55.672;37.764;2023-02-18T04:48:34;99792.03;;;-6.89;100.00
26192;BME280;13935;55.672;37.764;2023-02-18T04:49:36;99782.66;;;-7.02;100.00
26192;BME280;13935;55.672;37.764;2023-02-18T04:50:38;99786.44;;;-6.98;100.00
26192;BME280;13935;55.672;37.764;2023-02-18T04:51:40;99789.59;;;-6.86;100.00
26192;BME280;13935;55.672;37.764;2023-02-18T04:52:42;99792.00;;;-6.84;100.00
26192;BME280;13935;55.672;37.764;2023-02-18T04:53:44;99789.59;;;-6.91;100.00
26192;BME280;13935;55.672;37.764;2023-02-18T04:54:47;99779.09;;;-6.87;100.00
26192;BME280;13935;55.672;37.764;2023-02-18T04:55:50;99781.03;;;-6.93;100.00
26192;BME280;13935;55.672;37.764;2023-02-18T04:56:52;99779.44;;;-6.99;100.00
26192;BME280;13935;55.672;37.764;2023-02-18T04:57:55;99782.66;;;-7.02;100.00
26192;BME280;13935;55.672;37.764;2023-02-18T04:58:57;99775.13;;;-6.95;100.00
26192;BME280;13935;55.672;37.764;2023-02-18T04:59:59;99783.09;;;-6.75;100.00
26192;BME280;13935;55.672;37.764;2023-02-18T05:01:02;99781.53;;;-6.91;100.00
26192;BME280;13935;55.672;37.764;2023-02-18T05:02:05;99794.41;;;-6.83;100.00
26192;BME280;13935;55.672;37.764;2023-02-18T05:03:07;99792.22;;;-6.76;100.00
26192;BME280;13935;55.672;37.764;2023-02-18T05:04:09;99790.06;;;-6.79;100.00
26192;BME280;13935;55.672;37.764;2023-02-18T05:05:12;99786.31;;;-6.78;100.00
26192;BME280;13935;55.672;37.764;2023-02-18T05:06:14;99787.38;;;-6.74;100.00
26192;BME280;13935;55.672;37.764;2023-02-18T05:07:16;99784.44;;;-6.77;100.00
26192;BME280;13935;55.672;37.764;2023-02-18T05:08:19;99792.31;;;-6.96;100.00
26192;BME280;13935;55.672;37.764;2023-02-18T05:09:21;99779.34;;;-6.84;100.00
26192;BME280;13935;55.672;37.764;2023-02-18T05:10:23;99776.13;;;-6.81;100.00
26192;BME280;13935;55.672;37.764;2023-02-18T05:11:25;99787.88;;;-6.72;100.00
26192;BME280;13935;55.672;37.764;2023-02-18T05:12:27;99772.88;;;-6.78;100.00
26192;BME280;13935;55.672;37.764;2023-02-18T05:13:29;99771.31;;;-6.89;100.00
26192;BME280;13935;55.672;37.764;2023-02-18T05:14:31;99774.56;;;-6.92;100.00
26192;BME280;13935;55.672;37.764;2023-02-18T05:15:33;99777.84;;;-7.04;100.00
26192;BME280;13935;55.672;37.764;2023-02-18T05:16:36;99773.00;;;-6.98;100.00
26192;BME280;13935;55.672;37.764;2023-02-18T05:17:38;99773.44;;;-6.81;100.00
26192;BME280;13935;55.672;37.764;2023-02-18T05:18:40;99775.59;;;-6.83;100.00
26192;BME280;13935;55.672;37.764;2023-02-18T05:19:42;99776.69;;;-6.89;100.00
26192;BME280;13935;55.672;37.764;2023-02-18T05:20:44;99772.50;;;-7.04;100.00
26192;BME280;13935;55.672;37.764;2023-02-18T05:21:47;99779.44;;;-7.04;100.00
26192;BME280;13935;55.672;37.764;2023-02-18T05:22:49;99768.91;;;-6.90;100.00
26192;BME280;13935;55.672;37.764;2023-02-18T05:23:51;99769.19;;;-6.97;100.00
26192;BME280;13935;55.672;37.764;2023-02-18T05:24:53;99768.09;;;-6.86;100.00
26192;BME280;13935;55.672;37.764;2023-02-18T05:25:55;99758.97;;;-6.90;100.00
26192;BME280;13935;55.672;37.764;2023-02-18T05:26:57;99758.38;;;-6.82;100.00
26192;BME280;13935;55.672;37.764;2023-02-18T05:27:59;99770.28;;;-6.93;100.00
26192;BME280;13935;55.672;37.764;2023-02-18T05:29:03;99754.19;;;-6.98;100.00
26192;BME280;13935;55.672;37.764;2023-02-18T05:30:06;99754.72;;;-7.01;100.00
26192;BME280;13935;55.672;37.764;2023-02-18T05:31:08;99751.97;;;-6.91;100.00
26192;BME280;13935;55.672;37.764;2023-02-18T05:32:10;99760.53;;;-6.84;100.00
26192;BME280;13935;55.672;37.764;2023-02-18T05:33:12;99756.91;;;-7.07;100.00
26192;BME280;13935;55.672;37.764;2023-02-18T05:34:17;99749.88;;;-6.99;100.00
26192;BME280;13935;55.672;37.764;2023-02-18T05:35:20;99747.09;;;-6.84;100.00
26192;BME280;13935;55.672;37.764;2023-02-18T05:36:22;99742.72;;;-6.70;100.00
26192;BME280;13935;55.672;37.764;2023-02-18T05:37:24;99750.25;;;-6.72;100.00
26192;BME280;13935;55.672;37.764;2023-02-18T05:38:26;99749.78;;;-6.84;100.00
26192;BME280;13935;55.672;37.764;2023-02-18T05:39:28;99748.19;;;-6.80;100.00
26192;BME280;13935;55.672;37.764;2023-02-18T05:40:30;99752.47;;;-6.84;100.00
26192;BME280;13935;55.672;37.764;2023-02-18T05:41:32;99750.88;;;-6.80;100.00
26192;BME280;13935;55.672;37.764;2023-02-18T05:42:34;99746.81;;;-6.77;100.00
26192;BME280;13935;55.672;37.764;2023-02-18T05:43:36;99734.22;;;-6.82;100.00
26192;BME280;13935;55.672;37.764;2023-02-18T05:44:56;99731.19;;;-6.70;100.00
26192;BME280;13935;55.672;37.764;2023-02-18T05:45:58;99743.50;;;-6.64;100.00
26192;BME280;13935;55.672;37.764;2023-02-18T05:47:08;99742.19;;;-6.72;100.00
26192;BME280;13935;55.672;37.764;2023-02-18T05:48:12;99744.63;;;-6.75;100.00
26192;BME280;13935;55.672;37.764;2023-02-18T05:49:14;99746.28;;;-6.79;100.00
26192;BME280;13935;55.672;37.764;2023-02-18T05:50:16;99734.22;;;-6.82;100.00
26192;BME280;13935;55.672;37.764;2023-02-18T05:51:18;99729.31;;;-6.75;100.00
26192;BME280;13935;55.672;37.764;2023-02-18T05:52:20;99731.41;;;-6.62;100.00
26192;BME280;13935;55.672;37.764;2023-02-18T05:53:22;99713.66;;;-6.63;100.00
26192;BME280;13935;55.672;37.764;2023-02-18T05:54:24;99720.13;;;-6.64;100.00
26192;BME280;13935;55.672;37.764;2023-02-18T05:55:27;99719.56;;;-6.66;100.00
26192;BME280;13935;55.672;37.764;2023-02-18T05:56:29;99720.69;;;-6.67;100.00
26192;BME280;13935;55.672;37.764;2023-02-18T05:57:31;99709.44;;;-6.74;100.00
26192;BME280;13935;55.672;37.764;2023-02-18T05:58:33;99713.56;;;-6.53;100.00
26192;BME280;13935;55.672;37.764;2023-02-18T05:59:34;99707.19;;;-6.62;100.00
26192;BME280;13935;55.672;37.764;2023-02-18T06:00:36;99713.44;;;-6.71;100.00
26192;BME280;13935;55.672;37.764;2023-02-18T06:01:39;99704.56;;;-6.67;100.00
26192;BME280;13935;55.672;37.764;2023-02-18T06:02:41;99703.50;;;-6.71;100.00
26192;BME280;13935;55.672;37.764;2023-02-18T06:03:43;99704.31;;;-6.70;100.00
26192;BME280;13935;55.672;37.764;2023-02-18T06:04:45;99695.28;;;-6.51;100.00
26192;BME280;13935;55.672;37.764;2023-02-18T06:05:51;99688.34;;;-6.57;100.00
26192;BME280;13935;55.672;37.764;2023-02-18T06:06:53;99694.75;;;-6.48;100.00
26192;BME280;13935;55.672;37.764;2023-02-18T06:07:55;99701.09;;;-6.39;100.00
26192;BME280;13935;55.672;37.764;2023-02-18T06:08:57;99692.84;;;-6.47;100.00
26192;BME280;13935;55.672;37.764;2023-02-18T06:09:59;99684.72;;;-6.42;100.00
26192;BME280;13935;55.672;37.764;2023-02-18T06:11:02;99698.59;;;-6.64;100.00
26192;BME280;13935;55.672;37.764;2023-02-18T06:12:04;99701.69;;;-6.47;100.00
26192;BME280;13935;55.672;37.764;2023-02-18T06:13:09;99680.88;;;-6.65;100.00
26192;BME280;13935;55.672;37.764;2023-02-18T06:14:11;99686.97;;;-6.54;100.00
26192;BME280;13935;55.672;37.764;2023-02-18T06:15:13;99686.97;;;-6.54;100.00
26192;BME280;13935;55.672;37.764;2023-02-18T06:16:15;99692.50;;;-6.41;100.00